Crestone, CO

3:54 AM MDT on August 27, 2014 (GMT -0600)
Taylor Creek Highlands | Change Station
CLOSE
Current Station
Personal Weather Station
Location: Westcliffe, CO
Elevation: 8660 ft
Nearby Weather Stations

Elev 8660 ft 38.12 °N, 105.58 °W | Updated 3 seconds ago

Rain
Rain
48.9 °F
Feels Like 49 °F
N
0.0
Wind Variable Wind from NW
Gusts 0.0 mph

Today
High -- | Low -- °F
--% Chance of Precip.
Yesterday
High -- | Low -- °F
Precip. -- in
6:28 AM 7:39 PM
Waxing Crescent, 3% visible
Pressure 30.08 in
Visibility 10.0 miles
Clouds Overcast 8500 ft
Windchill 49 °F
Dew Point 46 °F
Humidity 89%
Rainfall 0.00 in
Snow Depth Not available.
UV 0 out of 12
Pollen 10.20 out of 12
Air Quality Not available.
Flu Activity Not available.
METAR KALS 270852Z AUTO 06004KT 10SM OVC085 12/11 A3031 RMK AO2 SLP185 T01170106 58009

More Conditions Fewer Conditions

Pressure 30.08 in
Visibility 10.0 miles
Clouds Overcast 8500 ft
Windchill 49 °F
Dew Point 46 °F
Humidity 89%
Rainfall 0.00 in
Snow Depth Not available.
UV 0 out of 12
Pollen 10.20 out of 12
Air Quality Not available.
Flu Activity Not available.
METAR KALS 270852Z AUTO 06004KT 10SM OVC085 12/11 A3031 RMK AO2 SLP185 T01170106 58009

More Conditions Fewer Conditions

10-Day Weather Forecast

Almanac

Astronomy

Aug. 27, 2014 Rise Set
Actual Time 6:28 AM MDT 7:39 PM MDT
Civil Twilight 6:01 AM MDT 8:06 PM MDT
Nautical Twilight 5:28 AM MDT 8:39 PM MDT
Astronomical Twilight 4:54 AM MDT 9:12 PM MDT
Moon 8:24 AM MDT 8:36 PM MDT
Length of Visible Light 14h 05m
Length of Day
13h 11m
Tomorrow will be 2m 19s shorter.
Waxing Crescent, 3% of the Moon is Illuminated
Today
Waxing Crescent
Sep 2
First Quarter
Sep 8
Full
Sep 15
Last Quarter
Sep 24
New

Today's Extremes

State Highs State Lows

Community

WunderPhotos

Upload Photos

1,747,661 photos uploaded!

Nearby

Snow Depth

Station Depth Elevation
South Colony 0 in 10800 ft
Medano Pass 0 in 9620 ft
Ute Creek 0 in 10650 ft
Porphyry Creek 0 in 10760 ft
Cochetopa Pass 0 in 10020 ft

Earthquake Activity

City Distance Mag. Time & Date
No recent earthquake activity has been reported nearby.
Minimum magnitude displayed is 2.5.

Coastal Water Temperatures

Place Temperature
No Stations Reporting

Nearby Weather Stations